Portada
METAR-TAF:

METAR-TAF

Aeroports :

Dortmund, Alemanya

latitud: 51-31N, longitud: 007-37E, altitud: 127 m

Observació

L'informe es va fer fa 28 minuts, a les 03:20 UTC
Vent 5 kt del Est
Temperatura 4°C
Humitat 87%
Pressió 1000 hPa
Visibilitat 10 km o més

METAR: EDLW 140320Z AUTO 10005KT 9999 // NCD 04/02 Q1000

Hora: 04:48 (03:48 UTC)

Pronòstic

L'informe es va fer fa 10 hores i 48 minuts, a les 17:00 UTC
Pronòstic vàlid del 13 a les 18 UTC al 14 a les 18 UTC
Vent 8 kt del Sud
Visibilitat 10 km o més
Cel ennuvolat a una alçada de 4000 ft
Evolucionant progressivament
l' 14 a les 03 UTC al 14 a les 05 UTC
Vent 7 kt del Sud-Est
Evolucionant progressivament
l' 14 a les 14 UTC al 14 a les 16 UTC
Vent 6 kt del Est/Nord-Est

TAF: EDLW 131700Z 1318/1418 19008KT 9999 BKN040 BECMG 1403/1405 13007KT BECMG 1414/1416 07006KT

Observacions i pronòstics meteorològics de més de 4000 aeroports (METAR i TAF).

Les estacions disponibles són els punts grocs i vermells al mapa.

Posi el ratolí al punt desitjat per veure el nom de l'estació.

Feu clic per veure les observacions i els pronòstics meteorològics.

Per canviar el mapa: feu clic els botons verds amb una creu de color negre per apropar; al botó verd amb un guió per allunyar la imatge; o en les fletxes verdes per a mapes adjacents.


METAR-TAF: